Terminal Aerodrome Forecast
Issued by NWS Bismarck, ND

Home | Current Version | Previous Version | Text Only | Print | Product List | Glossary Off
Versions: 1 2 3 4 5 6 7 8 9 10 11 12 13 14 15 16 17 18 19 20 21 22 23 24 25 26 27 28 29 30

569
FTUS43 KBIS 220532
TAFBIS
TAF
KBIS 220532Z 2206/2306 00000KT P6SM SKC
      TEMPO 2206/2208 1/2SM FZFG BKN008 OVC011
     FM220800 28005KT 5SM BR OVC009
     FM221700 28009KT P6SM BKN015 OVC025
     FM222300 27007KT P6SM OVC012=

USA.gov is the U.S. government's official web portal to all federal, state and local government web resources and services.